Time;durP1;ratioP1;P1;durP2;ratioP2;P2;SDS_P1;SDS_P2;PMS_P1;PMS_P2;Temp;Humidity;BMP_temperature;BMP_pressure;BME280_temperature;BME280_humidity;BME280_pressure;Samples;Min_cycle;Max_cycle;Signal;HPM_P1;HPM_P2
2022/10/10 00:00:39;;;;;;;3.50;3.20;;;9.40;99.90;;;;;;5019678;28;20185;-77
2022/10/10 00:03:05;;;;;;;3.20;2.90;;;9.30;99.90;;;;;;5021167;28;20223;-77
2022/10/10 00:05:31;;;;;;;4.85;3.60;;;9.20;99.90;;;;;;5026473;28;20184;-80
2022/10/10 00:07:57;;;;;;;3.60;3.17;;;9.20;99.90;;;;;;5018554;28;20200;-76
2022/10/10 00:10:23;;;;;;;4.03;3.67;;;9.10;99.90;;;;;;5021652;28;20173;-76
2022/10/10 00:12:49;;;;;;;4.47;3.80;;;9.10;99.90;;;;;;5014945;28;20205;-77
2022/10/10 00:15:15;;;;;;;4.72;3.40;;;9.00;99.90;;;;;;5025667;28;20596;-78
2022/10/10 00:17:42;;;;;;;4.40;3.30;;;9.00;99.90;;;;;;5027924;28;20182;-77
2022/10/10 00:20:12;;;;;;;3.63;3.10;;;8.90;99.90;;;;;;5021267;28;20541;-77
2022/10/10 00:22:38;;;;;;;4.03;3.63;;;8.90;99.90;;;;;;5018517;28;20708;-77
2022/10/10 00:25:06;;;;;;;3.78;3.40;;;8.90;99.90;;;;;;5020933;28;20287;-78
2022/10/10 00:27:32;;;;;;;3.42;3.13;;;8.80;99.90;;;;;;5019712;28;20200;-77
2022/10/10 00:29:58;;;;;;;3.60;3.17;;;8.80;99.90;;;;;;5019930;28;20176;-78
2022/10/10 00:32:24;;;;;;;4.55;3.25;;;8.70;99.90;;;;;;5018286;28;20234;-79
2022/10/10 00:34:50;;;;;;;4.47;3.65;;;8.70;99.90;;;;;;5021047;28;20213;-77
2022/10/10 00:37:15;;;;;;;3.38;3.17;;;8.70;99.90;;;;;;5016030;28;20189;-77
2022/10/10 00:39:41;;;;;;;3.70;3.40;;;8.70;99.90;;;;;;5015339;28;20185;-76
2022/10/10 00:42:11;;;;;;;4.50;3.53;;;8.60;99.90;;;;;;5020182;28;20196;-76
2022/10/10 00:44:38;;;;;;;4.53;3.42;;;8.60;99.90;;;;;;5019233;28;20213;-76
2022/10/10 00:47:04;;;;;;;3.33;3.03;;;8.70;99.90;;;;;;5016164;28;20228;-76
2022/10/10 00:49:30;;;;;;;8.02;3.40;;;8.70;99.90;;;;;;5015291;28;20181;-77
2022/10/10 00:51:58;;;;;;;6.80;3.63;;;8.80;99.90;;;;;;5022301;28;20180;-76
2022/10/10 00:54:26;;;;;;;3.08;2.88;;;8.70;99.90;;;;;;5012494;28;20197;-76
2022/10/10 00:57:03;;;;;;;5.88;3.50;;;8.70;99.90;;;;;;5020933;28;20283;-77
2022/10/10 00:59:32;;;;;;;3.60;3.30;;;8.70;99.90;;;;;;5015854;28;20188;-76
2022/10/10 01:01:58;;;;;;;6.07;3.45;;;8.80;99.90;;;;;;5014544;28;20606;-76
2022/10/10 01:04:43;;;;;;;4.35;2.90;;;8.80;99.90;;;;;;5011214;28;20297;-75
2022/10/10 01:07:23;;;;;;;3.83;2.75;;;8.70;99.90;;;;;;5013144;28;20177;-75
2022/10/10 01:09:50;;;;;;;3.33;3.03;;;8.80;99.90;;;;;;5028426;28;20598;-77
2022/10/10 01:12:32;;;;;;;4.05;3.10;;;8.80;99.90;;;;;;5014483;28;20181;-77
2022/10/10 01:15:40;;;;;;;3.13;2.83;;;8.80;99.90;;;;;;5011734;28;20219;-77
2022/10/10 01:18:30;;;;;;;3.55;3.05;;;8.80;99.90;;;;;;5016131;28;20180;-76
2022/10/10 01:21:02;;;;;;;3.10;2.90;;;8.80;99.90;;;;;;5014704;28;20181;-77
2022/10/10 01:23:53;;;;;;;3.33;3.08;;;8.80;99.90;;;;;;5027624;28;20239;-77
2022/10/10 01:26:49;;;;;;;3.58;3.28;;;8.90;99.90;;;;;;5012464;28;20177;-77
2022/10/10 01:29:35;;;;;;;3.47;3.17;;;8.90;99.90;;;;;;5014108;28;20213;-77
2022/10/10 01:32:14;;;;;;;3.53;3.22;;;8.90;99.90;;;;;;5013234;28;20177;-76
2022/10/10 01:35:02;;;;;;;5.28;2.75;;;9.00;99.90;;;;;;5015984;28;20288;-76
2022/10/10 01:37:44;;;;;;;3.80;3.30;;;8.90;99.90;;;;;;5018615;28;20237;-76
2022/10/10 01:40:42;;;;;;;4.35;3.30;;;8.90;99.90;;;;;;5012194;28;20189;-76
2022/10/10 01:43:10;;;;;;;3.40;3.05;;;8.80;99.90;;;;;;5015525;28;20744;-77
2022/10/10 01:45:36;;;;;;;3.28;3.08;;;8.90;99.90;;;;;;5013890;28;20265;-76
2022/10/10 01:48:04;;;;;;;3.78;3.35;;;8.90;99.90;;;;;;5010590;28;20485;-77
2022/10/10 01:50:33;;;;;;;4.40;3.08;;;8.90;99.90;;;;;;5013329;28;20691;-78
2022/10/10 01:53:12;;;;;;;4.30;3.20;;;8.90;99.90;;;;;;5009020;28;20197;-78
2022/10/10 01:56:07;;;;;;;3.72;3.00;;;8.90;99.90;;;;;;5012323;28;20600;-77
2022/10/10 01:59:03;;;;;;;4.32;3.67;;;8.80;99.90;;;;;;5013019;28;20281;-77
2022/10/10 02:01:55;;;;;;;3.85;3.40;;;8.80;99.90;;;;;;5019774;28;20200;-76
2022/10/10 02:04:26;;;;;;;4.20;3.85;;;8.80;99.90;;;;;;5005551;28;20677;-77
2022/10/10 02:06:59;;;;;;;4.07;3.20;;;8.80;99.90;;;;;;5014162;28;20236;-76
2022/10/10 02:09:34;;;;;;;3.65;3.35;;;8.80;99.90;;;;;;5015277;28;20232;-75
2022/10/10 02:12:01;;;;;;;4.45;3.50;;;8.80;99.90;;;;;;5017746;28;20178;-77
2022/10/10 02:14:32;;;;;;;3.53;3.00;;;8.80;99.90;;;;;;5016949;28;20213;-77
2022/10/10 02:17:00;;;;;;;3.13;2.90;;;8.70;99.90;;;;;;5014131;28;20181;-77
2022/10/10 02:19:27;;;;;;;3.40;3.10;;;8.70;99.90;;;;;;5028653;28;20185;-77
2022/10/10 02:21:54;;;;;;;3.28;2.97;;;8.70;99.90;;;;;;5011630;28;20524;-77
2022/10/10 02:24:22;;;;;;;3.40;3.10;;;8.70;99.90;;;;;;5015276;28;20344;-77
2022/10/10 02:27:02;;;;;;;3.45;3.08;;;8.70;99.90;;;;;;5014999;28;20707;-77
2022/10/10 02:29:35;;;;;;;3.03;2.60;;;8.70;99.90;;;;;;5014086;28;20177;-77
2022/10/10 02:32:36;;;;;;;3.70;3.40;;;8.70;99.90;;;;;;5020369;28;20184;-77
2022/10/10 02:35:32;;;;;;;3.35;3.15;;;8.60;99.90;;;;;;5030500;28;20602;-77
2022/10/10 02:38:00;;;;;;;4.38;3.22;;;8.50;99.90;;;;;;5018924;28;20200;-77
2022/10/10 02:40:29;;;;;;;5.70;3.65;;;8.60;99.90;;;;;;5014758;28;20248;-77
2022/10/10 02:42:58;;;;;;;3.47;3.17;;;8.50;99.90;;;;;;5019989;28;20208;-77
2022/10/10 02:45:24;;;;;;;4.03;3.35;;;8.50;99.90;;;;;;5011050;28;20727;-76
2022/10/10 02:47:51;;;;;;;3.55;3.22;;;8.50;99.90;;;;;;5012817;28;20203;-77
2022/10/10 02:50:16;;;;;;;3.72;3.42;;;8.50;99.90;;;;;;5015651;28;20181;-76
2022/10/10 02:52:42;;;;;;;4.57;3.22;;;8.50;99.90;;;;;;5009779;28;20236;-75
2022/10/10 02:55:08;;;;;;;2.97;2.67;;;8.50;99.90;;;;;;5014437;28;20192;-76
2022/10/10 02:57:34;;;;;;;4.65;3.03;;;8.50;99.90;;;;;;5012849;28;20227;-76
2022/10/10 03:00:00;;;;;;;3.33;3.03;;;8.50;99.90;;;;;;5020643;28;20668;-75
2022/10/10 03:02:26;;;;;;;5.47;3.65;;;8.50;99.90;;;;;;5021261;28;20656;-75
2022/10/10 03:04:51;;;;;;;3.70;3.17;;;8.50;99.90;;;;;;5003119;28;20210;-77
2022/10/10 03:07:17;;;;;;;2.97;2.75;;;8.40;99.90;;;;;;5009978;28;20189;-76
2022/10/10 03:09:43;;;;;;;3.67;3.08;;;8.40;99.90;;;;;;5010280;28;20177;-76
2022/10/10 03:12:08;;;;;;;3.17;2.72;;;8.50;99.90;;;;;;5005543;28;20185;-78
2022/10/10 03:14:34;;;;;;;3.38;3.08;;;8.40;99.90;;;;;;5011979;28;20239;-75
2022/10/10 03:16:59;;;;;;;5.10;3.20;;;8.50;99.90;;;;;;5011314;28;20193;-75
2022/10/10 03:19:25;;;;;;;3.40;2.90;;;8.50;99.90;;;;;;5015237;28;20556;-77
2022/10/10 03:21:51;;;;;;;6.57;3.47;;;8.50;99.90;;;;;;5012958;28;20189;-77
2022/10/10 03:24:16;;;;;;;3.65;3.35;;;8.50;99.90;;;;;;5015341;28;20208;-76
2022/10/10 03:26:42;;;;;;;4.28;3.92;;;8.40;99.90;;;;;;5012838;28;20252;-77
2022/10/10 03:29:08;;;;;;;3.78;3.50;;;8.30;99.90;;;;;;5012166;28;20208;-77
2022/10/10 03:31:33;;;;;;;3.42;3.15;;;8.20;99.90;;;;;;5009543;28;20227;-77
2022/10/10 03:33:59;;;;;;;3.78;3.47;;;8.10;99.90;;;;;;5013568;28;20219;-77
2022/10/10 03:36:25;;;;;;;7.93;3.47;;;8.00;99.90;;;;;;5014463;28;20192;-78
2022/10/10 03:38:51;;;;;;;3.40;3.17;;;7.90;99.90;;;;;;5010099;28;20189;-77
2022/10/10 03:41:17;;;;;;;6.80;3.85;;;7.90;99.90;;;;;;5014940;28;20190;-78
2022/10/10 03:43:42;;;;;;;4.00;3.63;;;7.80;99.90;;;;;;5016819;28;20233;-75
2022/10/10 03:46:08;;;;;;;3.85;3.55;;;7.80;99.90;;;;;;5011479;28;20223;-77
2022/10/10 03:48:34;;;;;;;3.97;3.60;;;7.80;99.90;;;;;;5010852;28;20216;-75
2022/10/10 03:50:59;;;;;;;3.63;3.10;;;7.80;99.90;;;;;;5012614;28;20538;-77
2022/10/10 03:53:25;;;;;;;4.40;3.92;;;7.90;99.90;;;;;;5013265;28;20219;-76
2022/10/10 03:55:52;;;;;;;4.07;3.70;;;7.90;99.90;;;;;;5010314;28;20177;-76
2022/10/10 03:58:18;;;;;;;4.03;3.72;;;7.90;99.90;;;;;;5015935;28;20185;-76
2022/10/10 04:00:43;;;;;;;4.95;4.28;;;7.80;99.90;;;;;;5010659;28;20560;-76
2022/10/10 04:03:09;;;;;;;3.67;3.38;;;7.80;99.90;;;;;;5008421;28;20246;-77
2022/10/10 04:05:36;;;;;;;3.67;3.40;;;7.70;99.90;;;;;;5009515;28;20181;-77
2022/10/10 04:08:02;;;;;;;6.03;3.67;;;7.60;99.90;;;;;;5015250;28;20182;-78
2022/10/10 04:10:28;;;;;;;4.10;3.47;;;7.50;99.90;;;;;;5008878;28;20189;-77
2022/10/10 04:12:53;;;;;;;7.30;4.03;;;7.50;99.90;;;;;;5010764;28;20200;-76
2022/10/10 04:15:19;;;;;;;4.15;3.85;;;7.60;99.90;;;;;;5010007;28;20193;-77
2022/10/10 04:17:44;;;;;;;7.53;3.88;;;7.60;99.90;;;;;;5007892;28;20177;-76
2022/10/10 04:20:10;;;;;;;4.10;3.75;;;7.60;99.90;;;;;;5005068;28;20784;-76
2022/10/10 04:22:36;;;;;;;4.65;4.10;;;7.60;99.90;;;;;;5008191;28;20216;-76
2022/10/10 04:25:01;;;;;;;4.43;4.03;;;7.40;99.90;;;;;;5009819;28;20205;-76
2022/10/10 04:27:27;;;;;;;4.28;3.90;;;7.40;99.90;;;;;;5004314;28;20186;-76
2022/10/10 04:29:53;;;;;;;5.60;3.72;;;7.40;99.90;;;;;;5009243;28;20196;-76
2022/10/10 04:32:18;;;;;;;4.05;3.72;;;7.40;99.90;;;;;;5010265;28;20558;-77
2022/10/10 04:34:44;;;;;;;4.97;3.92;;;7.40;99.90;;;;;;5010803;28;20244;-77
2022/10/10 04:37:09;;;;;;;8.48;3.63;;;7.40;99.90;;;;;;5015885;28;20263;-77
2022/10/10 04:39:35;;;;;;;4.35;3.95;;;7.30;99.90;;;;;;5012218;28;20644;-77
2022/10/10 04:42:00;;;;;;;4.20;3.90;;;7.30;99.90;;;;;;5009835;28;20178;-76
2022/10/10 04:44:26;;;;;;;4.47;4.00;;;7.20;99.90;;;;;;5014220;28;20216;-77
2022/10/10 04:46:52;;;;;;;6.47;4.05;;;7.20;99.90;;;;;;5013372;28;20220;-76
2022/10/10 04:49:17;;;;;;;4.60;4.15;;;7.20;99.90;;;;;;5004447;28;20591;-77
2022/10/10 04:51:43;;;;;;;4.88;3.40;;;7.10;99.90;;;;;;5011293;28;20231;-76
2022/10/10 04:54:09;;;;;;;6.10;4.40;;;7.10;99.90;;;;;;5012573;28;20201;-77
2022/10/10 04:56:34;;;;;;;5.18;4.10;;;7.20;99.90;;;;;;5012451;28;20675;-77
2022/10/10 04:59:00;;;;;;;5.72;4.22;;;7.20;99.90;;;;;;5016728;28;20189;-76
2022/10/10 05:01:25;;;;;;;4.90;4.18;;;7.20;99.90;;;;;;5016595;28;20227;-75
2022/10/10 05:03:52;;;;;;;5.45;5.05;;;7.20;99.90;;;;;;5008346;28;20551;-75
2022/10/10 05:06:17;;;;;;;4.40;4.10;;;7.20;99.90;;;;;;5010446;28;20255;-76
2022/10/10 05:08:43;;;;;;;5.13;4.43;;;7.30;99.90;;;;;;5013924;28;21733;-74
2022/10/10 05:11:09;;;;;;;7.13;4.55;;;7.30;99.90;;;;;;5015065;28;20180;-74
2022/10/10 05:13:34;;;;;;;4.68;4.13;;;7.30;99.90;;;;;;5011104;28;20287;-74
2022/10/10 05:16:00;;;;;;;4.50;4.07;;;7.30;99.90;;;;;;5014818;28;20185;-76
2022/10/10 05:18:25;;;;;;;5.00;4.45;;;7.30;99.90;;;;;;5014207;28;20184;-75
2022/10/10 05:20:51;;;;;;;5.22;4.57;;;7.30;99.90;;;;;;5013062;28;20181;-76
2022/10/10 05:23:17;;;;;;;7.13;4.35;;;7.40;99.90;;;;;;5014453;28;20205;-75
2022/10/10 05:25:46;;;;;;;4.97;4.57;;;7.30;99.90;;;;;;5014681;28;20178;-74
2022/10/10 05:28:11;;;;;;;5.47;4.30;;;7.40;99.90;;;;;;5015464;28;20203;-75
2022/10/10 05:30:37;;;;;;;6.45;4.47;;;7.40;99.90;;;;;;5014516;28;20208;-75
2022/10/10 05:33:03;;;;;;;8.93;6.68;;;7.40;99.90;;;;;;5011107;28;20349;-76
2022/10/10 05:35:29;;;;;;;6.70;4.93;;;7.40;99.90;;;;;;5012404;28;20268;-80
2022/10/10 05:37:54;;;;;;;6.30;4.43;;;7.40;99.90;;;;;;5010543;28;20174;-77
2022/10/10 05:40:20;;;;;;;6.45;4.63;;;7.40;99.90;;;;;;5014195;28;20239;-76
2022/10/10 05:42:45;;;;;;;6.22;4.88;;;7.50;99.90;;;;;;5015489;28;20182;-76
2022/10/10 05:45:11;;;;;;;5.88;4.70;;;7.50;99.90;;;;;;5013562;28;20205;-76
2022/10/10 05:47:36;;;;;;;7.32;4.55;;;7.50;99.90;;;;;;5010765;28;20178;-76
2022/10/10 05:50:03;;;;;;;8.45;5.63;;;7.50;99.90;;;;;;5013291;28;20181;-75
2022/10/10 05:52:28;;;;;;;6.07;4.90;;;7.60;99.90;;;;;;5013424;28;20207;-75
2022/10/10 05:54:54;;;;;;;6.32;5.18;;;7.60;99.90;;;;;;5015329;28;20177;-77
2022/10/10 05:57:19;;;;;;;7.75;5.47;;;7.70;99.90;;;;;;5015157;28;20200;-75
2022/10/10 05:59:45;;;;;;;9.10;5.53;;;7.80;99.90;;;;;;5015367;28;20181;-75
2022/10/10 06:02:15;;;;;;;6.93;5.47;;;7.90;99.90;;;;;;5017004;28;20185;-83
2022/10/10 06:04:40;;;;;;;5.22;4.72;;;8.00;99.90;;;;;;5017899;28;20699;-76
2022/10/10 06:07:06;;;;;;;7.68;5.28;;;8.20;99.90;;;;;;5014547;28;20306;-76
2022/10/10 06:09:32;;;;;;;6.63;4.57;;;8.30;99.90;;;;;;5010633;28;20202;-77
2022/10/10 06:11:57;;;;;;;6.88;4.57;;;8.50;99.90;;;;;;5012080;28;20675;-74
2022/10/10 06:14:23;;;;;;;6.72;4.30;;;8.60;99.90;;;;;;5015147;28;20208;-73
2022/10/10 06:16:48;;;;;;;6.55;4.18;;;8.80;99.90;;;;;;5014260;28;20200;-74
2022/10/10 06:19:14;;;;;;;7.43;4.10;;;8.90;99.90;;;;;;5011559;28;20189;-73
2022/10/10 06:21:39;;;;;;;4.53;4.00;;;9.00;99.90;;;;;;5011948;28;20613;-70
2022/10/10 06:24:05;;;;;;;5.30;3.30;;;9.20;99.90;;;;;;5014101;28;20300;-70
2022/10/10 06:26:31;;;;;;;3.80;3.20;;;9.40;99.90;;;;;;5012348;28;20256;-70
2022/10/10 06:28:56;;;;;;;4.53;3.47;;;9.60;99.90;;;;;;5013969;28;20181;-72
2022/10/10 06:31:22;;;;;;;4.22;2.92;;;9.80;99.90;;;;;;5013941;28;20184;-79
2022/10/10 06:33:48;;;;;;;5.90;3.35;;;10.00;99.90;;;;;;5015107;28;20681;-77
2022/10/10 06:36:15;;;;;;;4.00;3.42;;;10.20;99.90;;;;;;5015430;28;20272;-77
2022/10/10 06:38:43;;;;;;;3.65;3.22;;;10.30;99.90;;;;;;5012505;28;21412;-76
2022/10/10 06:41:09;;;;;;;6.68;3.80;;;10.40;99.90;;;;;;5013892;28;20185;-76
2022/10/10 06:43:36;;;;;;;4.28;3.53;;;10.50;99.90;;;;;;5010685;28;20218;-76
2022/10/10 06:46:02;;;;;;;4.07;3.67;;;10.50;99.90;;;;;;5006432;28;20183;-76
2022/10/10 06:48:33;;;;;;;3.90;3.60;;;10.50;99.90;;;;;;5008773;28;20177;-76
2022/10/10 06:51:13;;;;;;;3.75;3.45;;;10.50;99.90;;;;;;5007399;28;20675;-77
2022/10/10 06:53:39;;;;;;;4.10;3.33;;;10.40;99.90;;;;;;5007835;28;20201;-77
2022/10/10 06:56:05;;;;;;;4.03;3.70;;;10.30;99.90;;;;;;5015475;28;20200;-76
2022/10/10 06:58:32;;;;;;;4.60;3.60;;;10.10;99.90;;;;;;5005373;28;20421;-77
2022/10/10 07:00:59;;;;;;;5.30;3.70;;;10.00;99.90;;;;;;5009077;28;20264;-79
2022/10/10 07:03:27;;;;;;;4.75;3.60;;;10.10;99.90;;;;;;5012703;28;20213;-78
2022/10/10 07:05:55;;;;;;;4.60;3.20;;;10.10;99.90;;;;;;5016417;28;20196;-77
2022/10/10 07:08:21;;;;;;;3.55;3.25;;;10.00;99.90;;;;;;5014454;28;20545;-75
2022/10/10 07:10:47;;;;;;;4.00;3.50;;;10.00;99.90;;;;;;5013343;28;20184;-75
2022/10/10 07:13:13;;;;;;;3.85;3.42;;;10.00;99.90;;;;;;5014812;28;20280;-75
2022/10/10 07:15:39;;;;;;;4.35;3.63;;;9.90;99.90;;;;;;5015627;28;20256;-75
2022/10/10 07:18:05;;;;;;;9.20;3.95;;;9.80;99.90;;;;;;5012896;28;20614;-76
2022/10/10 07:20:32;;;;;;;3.80;3.50;;;9.80;99.90;;;;;;5012538;28;20192;-76
2022/10/10 07:22:57;;;;;;;3.65;3.35;;;9.90;99.90;;;;;;5008543;28;20271;-74
2022/10/10 07:25:23;;;;;;;4.28;3.13;;;9.90;99.90;;;;;;5013916;28;20291;-75
2022/10/10 07:27:49;;;;;;;3.53;3.22;;;9.80;99.90;;;;;;5006806;28;20205;-74
2022/10/10 07:30:15;;;;;;;3.70;3.40;;;9.80;99.90;;;;;;5012371;28;20689;-74
2022/10/10 07:32:42;;;;;;;6.13;3.67;;;9.90;99.90;;;;;;5008870;28;20921;-74
2022/10/10 07:35:08;;;;;;;5.03;3.92;;;9.90;99.90;;;;;;5018789;28;20517;-73
2022/10/10 07:37:34;;;;;;;4.78;3.97;;;9.90;99.90;;;;;;5012133;28;20193;-75
2022/10/10 07:39:59;;;;;;;7.70;3.75;;;9.90;99.90;;;;;;5010715;28;20181;-74
2022/10/10 07:42:25;;;;;;;4.03;3.72;;;9.90;99.90;;;;;;5011266;28;20181;-75
2022/10/10 07:44:51;;;;;;;7.85;3.97;;;10.00;99.90;;;;;;5008655;28;20239;-73
2022/10/10 07:47:16;;;;;;;4.75;3.60;;;10.10;99.90;;;;;;5013320;28;20260;-72
2022/10/10 07:49:42;;;;;;;4.35;3.95;;;10.30;99.90;;;;;;5008395;28;20186;-72
2022/10/10 07:52:07;;;;;;;3.80;3.50;;;10.50;99.90;;;;;;5013707;28;20173;-72
2022/10/10 07:54:33;;;;;;;4.05;3.65;;;10.80;99.90;;;;;;5012479;28;20205;-73
2022/10/10 07:56:58;;;;;;;4.05;3.60;;;11.10;99.90;;;;;;5011962;28;20612;-73
2022/10/10 07:59:24;;;;;;;3.50;3.10;;;11.40;99.90;;;;;;5020301;28;20180;-74
2022/10/10 08:01:51;;;;;;;4.13;3.47;;;11.70;99.90;;;;;;5012319;28;20680;-73
2022/10/10 08:04:17;;;;;;;6.07;4.10;;;12.00;99.90;;;;;;5016482;28;20212;-73
2022/10/10 08:06:43;;;;;;;5.80;4.25;;;12.20;99.90;;;;;;5012264;28;20185;-75
2022/10/10 08:09:09;;;;;;;4.55;4.15;;;12.40;99.90;;;;;;5014439;28;20644;-73
2022/10/10 08:11:35;;;;;;;6.47;4.80;;;12.60;99.90;;;;;;5010854;28;20188;-74
2022/10/10 08:14:00;;;;;;;9.13;5.97;;;12.90;99.90;;;;;;5011867;28;20660;-74
2022/10/10 08:16:26;;;;;;;6.60;5.68;;;13.10;99.90;;;;;;5010450;28;20197;-74
2022/10/10 08:18:52;;;;;;;7.50;5.60;;;13.00;99.90;;;;;;5017721;28;20296;-74
2022/10/10 08:21:18;;;;;;;9.50;6.35;;;12.90;99.90;;;;;;5011945;28;20547;-74
2022/10/10 08:23:44;;;;;;;9.55;6.65;;;12.90;99.90;;;;;;5013705;28;20200;-73
2022/10/10 08:26:12;;;;;;;8.77;6.47;;;12.60;99.90;;;;;;5014950;28;20189;-74
2022/10/10 08:28:38;;;;;;;7.97;5.97;;;12.50;99.90;;;;;;5014277;28;20196;-75
2022/10/10 08:31:08;;;;;;;10.13;6.28;;;12.50;99.90;;;;;;5020403;28;20174;-74
2022/10/10 08:33:34;;;;;;;8.10;6.03;;;12.60;99.90;;;;;;5011961;28;20202;-73
2022/10/10 08:36:05;;;;;;;9.98;6.35;;;12.80;99.90;;;;;;5008429;28;20181;-73
2022/10/10 08:38:31;;;;;;;11.63;6.70;;;13.00;99.90;;;;;;5016951;28;20715;-74
2022/10/10 08:40:58;;;;;;;9.27;5.85;;;13.10;99.90;;;;;;5014831;28;20296;-75
2022/10/10 08:43:48;;;;;;;8.77;6.07;;;13.40;99.90;;;;;;5014561;28;20208;-74
2022/10/10 08:46:25;;;;;;;13.48;6.18;;;13.80;99.90;;;;;;5013390;28;20205;-75
2022/10/10 08:48:55;;;;;;;7.93;5.90;;;14.20;99.90;;;;;;5014569;28;20223;-75
2022/10/10 08:51:28;;;;;;;9.98;5.72;;;14.60;99.90;;;;;;5012272;28;20177;-75
2022/10/10 08:53:57;;;;;;;9.23;6.00;;;14.80;99.90;;;;;;5016928;28;20213;-74
2022/10/10 08:56:33;;;;;;;9.40;6.45;;;15.20;99.90;;;;;;5016186;28;20666;-74
2022/10/10 08:59:23;;;;;;;6.78;5.80;;;15.50;99.90;;;;;;5016070;28;20200;-74
2022/10/10 09:01:54;;;;;;;9.60;6.95;;;15.60;99.90;;;;;;5014265;28;20189;-74
2022/10/10 09:04:20;;;;;;;8.63;5.95;;;15.70;99.90;;;;;;5019762;28;20231;-74
2022/10/10 09:07:04;;;;;;;11.38;6.85;;;15.80;99.90;;;;;;5020386;28;20189;-74
2022/10/10 09:09:59;;;;;;;9.43;6.75;;;15.70;99.90;;;;;;5010396;28;20249;-74
2022/10/10 09:12:43;;;;;;;9.15;7.18;;;15.80;99.90;;;;;;5014733;28;20209;-77
2022/10/10 09:15:34;;;;;;;7.80;6.97;;;16.00;99.90;;;;;;5019788;28;20651;-75
2022/10/10 09:18:31;;;;;;;9.18;6.70;;;16.00;99.90;;;;;;5019321;28;20740;-76
2022/10/10 09:21:17;;;;;;;7.55;6.60;;;16.30;99.90;;;;;;5016170;28;20761;-75
2022/10/10 09:23:57;;;;;;;9.18;7.10;;;16.20;99.90;;;;;;5010111;28;20303;-75
2022/10/10 09:26:29;;;;;;;7.88;6.53;;;16.30;99.90;;;;;;5013193;28;20243;-75
2022/10/10 09:29:11;;;;;;;10.27;7.47;;;16.40;99.90;;;;;;5013093;28;20175;-76
2022/10/10 09:32:04;;;;;;;9.75;7.70;;;16.20;99.90;;;;;;5012207;28;20177;-75
2022/10/10 09:34:44;;;;;;;10.70;7.63;;;16.10;99.90;;;;;;5004623;28;20850;-75
2022/10/10 09:37:14;;;;;;;7.78;6.53;;;16.00;99.90;;;;;;5014464;28;20181;-74
2022/10/10 09:39:49;;;;;;;8.13;6.57;;;16.00;99.90;;;;;;5021025;28;20582;-74
2022/10/10 09:42:19;;;;;;;10.55;7.15;;;16.10;99.90;;;;;;5011600;28;20192;-74
2022/10/10 09:44:45;;;;;;;8.88;6.10;;;16.20;99.90;;;;;;5014413;28;20316;-76
2022/10/10 09:47:15;;;;;;;10.23;7.75;;;16.30;99.90;;;;;;5011534;28;20248;-76
2022/10/10 09:49:42;;;;;;;9.80;7.38;;;16.40;99.90;;;;;;5012194;28;20706;-74
2022/10/10 09:52:22;;;;;;;9.05;7.47;;;16.40;99.90;;;;;;5011902;28;20193;-75
2022/10/10 09:54:49;;;;;;;9.30;7.88;;;16.30;99.90;;;;;;5013591;28;20213;-74
2022/10/10 09:57:19;;;;;;;10.43;8.13;;;16.60;99.90;;;;;;5015633;28;20185;-75
2022/10/10 09:59:45;;;;;;;10.88;8.35;;;16.70;99.90;;;;;;5011823;28;20285;-75
2022/10/10 10:02:21;;;;;;;10.88;9.07;;;16.90;99.90;;;;;;5015849;28;20193;-75
2022/10/10 10:04:49;;;;;;;10.73;9.30;;;17.20;99.90;;;;;;5011016;28;20778;-75
2022/10/10 10:07:26;;;;;;;13.38;10.60;;;17.10;99.90;;;;;;5018674;28;20199;-74
2022/10/10 10:09:56;;;;;;;11.65;10.43;;;17.10;99.90;;;;;;5012762;28;20664;-74
2022/10/10 10:12:36;;;;;;;12.82;10.07;;;17.10;99.90;;;;;;5014539;28;20267;-74
2022/10/10 10:15:05;;;;;;;13.32;10.95;;;17.10;99.90;;;;;;5013115;28;20664;-74
2022/10/10 10:17:31;;;;;;;11.45;10.05;;;17.10;99.90;;;;;;5009074;28;20744;-74
2022/10/10 10:19:57;;;;;;;10.90;9.77;;;17.00;99.90;;;;;;5014471;28;20195;-75
2022/10/10 10:22:25;;;;;;;11.75;10.55;;;17.10;99.90;;;;;;5013605;28;20187;-75
2022/10/10 10:24:51;;;;;;;14.10;11.48;;;17.00;99.90;;;;;;5014562;28;20209;-75
2022/10/10 10:27:19;;;;;;;12.65;11.35;;;17.20;99.90;;;;;;5012437;28;20268;-75
2022/10/10 10:29:50;;;;;;;14.13;11.55;;;17.70;99.90;;;;;;5014216;28;20177;-74
2022/10/10 10:32:34;;;;;;;14.13;12.40;;;17.70;99.90;;;;;;5012028;28;20181;-75
2022/10/10 10:35:27;;;;;;;14.38;12.60;;;17.90;99.90;;;;;;5011031;28;20215;-75
2022/10/10 10:38:30;;;;;;;19.35;14.05;;;18.00;99.90;;;;;;5014026;28;20185;-75
2022/10/10 10:41:14;;;;;;;17.17;14.45;;;17.90;99.90;;;;;;5011478;28;20196;-75
2022/10/10 10:44:00;;;;;;;16.38;12.60;;;18.10;99.90;;;;;;5006319;28;20216;-75
2022/10/10 10:46:38;;;;;;;15.35;12.55;;;18.20;99.90;;;;;;5015008;28;20184;-81
2022/10/10 10:49:14;;;;;;;13.68;11.60;;;18.20;99.90;;;;;;5014401;28;20184;-77
2022/10/10 10:52:05;;;;;;;13.23;11.90;;;18.40;99.90;;;;;;5010347;28;20180;-78
2022/10/10 10:54:40;;;;;;;14.90;12.40;;;18.70;99.90;;;;;;5017768;28;20284;-79
2022/10/10 10:57:12;;;;;;;14.07;12.18;;;18.90;99.90;;;;;;5014175;28;20204;-80
2022/10/10 11:00:01;;;;;;;15.52;13.18;;;19.00;99.90;;;;;;5017363;28;20182;-80
2022/10/10 11:02:50;;;;;;;15.43;13.07;;;19.00;99.90;;;;;;5015243;28;20185;-79
2022/10/10 11:05:51;;;;;;;14.75;13.15;;;19.10;99.90;;;;;;5016013;28;20219;-79
2022/10/10 11:08:23;;;;;;;17.77;14.57;;;19.20;99.90;;;;;;4998491;28;20607;-79
2022/10/10 11:11:16;;;;;;;16.10;14.38;;;19.40;99.90;;;;;;5011014;28;20571;-79
2022/10/10 11:13:52;;;;;;;16.08;13.48;;;19.60;99.90;;;;;;5015274;28;20259;-77
2022/10/10 11:16:45;;;;;;;16.92;15.18;;;19.90;99.90;;;;;;5010587;28;20189;-78
2022/10/10 11:19:13;;;;;;;16.05;13.77;;;20.20;99.90;;;;;;5012323;28;20199;-78
2022/10/10 11:21:57;;;;;;;13.63;12.32;;;21.10;99.90;;;;;;5007701;28;20197;-78
2022/10/10 11:24:43;;;;;;;13.50;12.20;;;21.80;99.90;;;;;;5013435;28;20211;-78
2022/10/10 11:27:35;;;;;;;14.77;13.27;;;22.00;99.90;;;;;;5013372;28;20879;-79
2022/10/10 11:30:04;;;;;;;12.38;11.18;;;22.40;99.90;;;;;;5010149;28;20197;-78
2022/10/10 11:32:41;;;;;;;12.48;11.18;;;22.60;99.90;;;;;;5011476;28;20236;-78
2022/10/10 11:35:44;;;;;;;12.40;11.20;;;22.40;99.90;;;;;;5012065;28;20192;-78
2022/10/10 11:38:32;;;;;;;13.38;11.80;;;22.90;99.90;;;;;;5005570;28;20177;-78
2022/10/10 11:41:16;;;;;;;11.70;10.50;;;24.20;97.80;;;;;;5004392;28;20198;-79
2022/10/10 11:43:56;;;;;;;12.07;10.98;;;25.00;95.40;;;;;;5006932;28;20292;-77
2022/10/10 11:46:42;;;;;;;13.75;12.02;;;25.50;93.30;;;;;;5002471;28;20168;-76
2022/10/10 11:49:10;;;;;;;13.18;11.27;;;24.90;91.90;;;;;;5010097;28;20548;-78
2022/10/10 11:51:43;;;;;;;12.52;11.32;;;24.50;93.00;;;;;;5011435;28;20185;-79
2022/10/10 11:54:39;;;;;;;12.05;10.80;;;25.20;92.30;;;;;;5016263;28;20283;-78
2022/10/10 11:57:15;;;;;;;10.98;9.88;;;26.80;89.40;;;;;;5014000;28;20280;-77
2022/10/10 11:59:46;;;;;;;11.32;10.23;;;29.40;80.50;;;;;;5014079;28;20188;-76
2022/10/10 12:02:29;;;;;;;11.35;10.27;;;30.70;71.90;;;;;;5012946;28;20761;-77
2022/10/10 12:04:55;;;;;;;10.57;9.65;;;31.20;67.20;;;;;;5015518;28;20250;-76
2022/10/10 12:08:14;;;;;;;9.60;8.73;;;32.20;63.00;;;;;;5012879;28;20176;-77
2022/10/10 12:10:56;;;;;;;9.90;9.10;;;32.20;61.00;;;;;;5005201;28;20343;-75
2022/10/10 12:13:31;;;;;;;9.65;8.75;;;32.90;58.80;;;;;;5013771;28;20602;-76
2022/10/10 12:16:05;;;;;;;10.10;9.15;;;33.70;57.30;;;;;;5015677;28;20176;-75
2022/10/10 12:18:43;;;;;;;9.75;8.85;;;34.10;55.70;;;;;;5009896;28;20558;-74
2022/10/10 12:21:15;;;;;;;10.38;9.38;;;33.70;55.90;;;;;;5011965;28;20168;-74
2022/10/10 12:23:45;;;;;;;10.55;9.50;;;32.50;56.50;;;;;;5012170;28;20262;-74
2022/10/10 12:26:52;;;;;;;10.27;9.32;;;31.20;58.30;;;;;;5015499;28;20230;-74
2022/10/10 12:29:40;;;;;;;10.38;8.88;;;29.80;61.10;;;;;;5011917;28;20279;-76
2022/10/10 12:32:14;;;;;;;10.88;8.73;;;28.60;64.60;;;;;;5012518;28;20230;-76
2022/10/10 12:34:43;;;;;;;9.73;8.93;;;27.60;67.40;;;;;;5008313;28;20568;-76
2022/10/10 12:37:28;;;;;;;9.25;8.45;;;26.90;69.90;;;;;;5009501;28;20208;-76
2022/10/10 12:40:06;;;;;;;9.68;8.77;;;26.60;71.40;;;;;;5011343;28;20328;-76
2022/10/10 12:42:36;;;;;;;9.52;8.73;;;26.90;71.30;;;;;;5011809;28;20184;-76
2022/10/10 12:45:02;;;;;;;9.35;8.57;;;27.10;70.70;;;;;;5012781;28;20751;-76
2022/10/10 12:47:43;;;;;;;7.53;6.93;;;26.80;71.70;;;;;;5011512;28;20555;-75
2022/10/10 12:50:39;;;;;;;8.50;7.75;;;26.70;72.10;;;;;;5010673;28;20259;-76
2022/10/10 12:53:18;;;;;;;8.35;7.55;;;26.40;72.80;;;;;;5006923;28;20292;-76
2022/10/10 12:55:53;;;;;;;8.55;7.80;;;25.80;74.50;;;;;;5011376;28;20206;-76
2022/10/10 12:58:21;;;;;;;8.20;7.47;;;25.30;76.20;;;;;;5010161;28;20551;-75
2022/10/10 13:00:47;;;;;;;11.52;8.38;;;25.00;78.60;;;;;;5010356;28;20183;-77
2022/10/10 13:03:25;;;;;;;9.40;8.45;;;24.40;79.50;;;;;;5008974;28;20271;-77
2022/10/10 13:05:52;;;;;;;8.23;7.43;;;24.20;80.40;;;;;;5012729;28;20191;-78
2022/10/10 13:08:23;;;;;;;8.73;8.00;;;24.20;81.50;;;;;;5010889;28;20181;-77
2022/10/10 13:11:10;;;;;;;9.35;8.45;;;24.30;81.10;;;;;;5010518;28;20199;-76